createdAt,value
2018-04-04T00:02:13.535Z,8.93
2018-04-04T00:04:39.711Z,3.37
2018-04-04T00:07:06.653Z,12.53
2018-04-04T00:09:33.532Z,6.07
2018-04-04T00:11:59.704Z,9.03
2018-04-04T00:14:25.916Z,11.23
2018-04-04T00:16:52.051Z,9.90
2018-04-04T00:19:18.162Z,11.20
2018-04-04T00:21:44.368Z,7.50
2018-04-04T00:24:10.531Z,8.03
2018-04-04T00:26:36.716Z,3.63
2018-04-04T00:29:02.871Z,15.00
2018-04-04T00:31:29.039Z,9.93
2018-04-04T00:33:55.961Z,5.50
2018-04-04T00:36:22.106Z,8.43
2018-04-04T00:38:49.045Z,15.57
2018-04-04T00:41:15.929Z,9.80
2018-04-04T00:43:42.104Z,3.53
2018-04-04T00:46:08.263Z,8.17
2018-04-04T00:48:35.198Z,9.87
2018-04-04T00:51:02.171Z,9.00
2018-04-04T00:53:28.343Z,13.37
2018-04-04T00:55:54.463Z,3.83
2018-04-04T00:58:20.666Z,10.40
2018-04-04T01:00:46.860Z,6.23
2018-04-04T01:03:13.030Z,6.30
2018-04-04T01:05:39.171Z,9.93
2018-04-04T01:08:05.329Z,5.13
2018-04-04T01:10:32.250Z,12.13
2018-04-04T01:12:58.430Z,7.70
2018-04-04T01:15:24.557Z,6.70
2018-04-04T01:17:50.787Z,5.87
2018-04-04T01:20:16.937Z,8.57
2018-04-04T01:22:43.108Z,9.07
2018-04-04T01:25:09.197Z,12.40
2018-04-04T01:27:35.355Z,8.50
2018-04-04T01:30:02.360Z,10.80
2018-04-04T01:32:28.542Z,14.97
2018-04-04T01:34:55.459Z,5.80
2018-04-04T01:37:21.646Z,13.00
2018-04-04T01:39:47.805Z,10.07
2018-04-04T01:42:13.944Z,8.60
2018-04-04T01:44:40.078Z,9.20
2018-04-04T01:47:06.218Z,5.10
2018-04-04T01:49:33.111Z,7.20
2018-04-04T01:51:59.268Z,8.80
2018-04-04T01:54:25.433Z,8.20
2018-04-04T01:56:51.552Z,9.20
2018-04-04T01:59:17.721Z,6.57
2018-04-04T02:01:43.882Z,6.07
2018-04-04T02:04:10.059Z,9.33
2018-04-04T02:06:36.201Z,19.83
2018-04-04T02:09:02.416Z,5.53
2018-04-04T02:11:28.622Z,4.73
2018-04-04T02:13:54.784Z,5.47
2018-04-04T02:16:20.920Z,12.23
2018-04-04T02:18:47.034Z,6.77
2018-04-04T02:21:13.282Z,7.07
2018-04-04T02:23:39.372Z,5.70
2018-04-04T02:26:05.572Z,7.00
2018-04-04T02:28:31.727Z,11.53
2018-04-04T02:30:57.910Z,5.87
2018-04-04T02:33:24.827Z,5.17
2018-04-04T02:35:51.072Z,7.37
2018-04-04T02:38:17.970Z,12.63
2018-04-04T02:40:44.176Z,4.57
2018-04-04T02:43:10.429Z,10.33
2018-04-04T02:45:36.588Z,13.40
2018-04-04T02:48:02.753Z,15.87
2018-04-04T02:50:29.678Z,5.43
2018-04-04T02:52:55.845Z,8.03
2018-04-04T02:55:22.002Z,5.70
2018-04-04T02:57:48.148Z,6.70
2018-04-04T03:00:14.372Z,21.30
2018-04-04T03:02:41.292Z,14.90
2018-04-04T03:05:07.456Z,5.10
2018-04-04T03:07:34.342Z,7.03
2018-04-04T03:10:00.489Z,12.03
2018-04-04T03:12:26.669Z,7.33
2018-04-04T03:14:53.520Z,7.20
2018-04-04T03:17:19.658Z,10.13
2018-04-04T03:19:45.848Z,5.30
2018-04-04T03:22:12.788Z,15.93
2018-04-04T03:24:39.005Z,7.13
2018-04-04T03:27:05.161Z,9.83
2018-04-04T03:29:32.052Z,14.03
2018-04-04T03:31:58.201Z,10.43
2018-04-04T03:34:24.409Z,10.20
2018-04-04T03:36:50.589Z,10.33
2018-04-04T03:39:17.501Z,8.43
2018-04-04T03:41:43.650Z,9.80
2018-04-04T03:44:10.555Z,14.37
2018-04-04T03:46:36.759Z,12.70
2018-04-04T03:49:02.956Z,8.10
2018-04-04T03:51:29.844Z,7.53
2018-04-04T03:53:56.080Z,8.17
2018-04-04T03:56:22.192Z,4.33
2018-04-04T03:58:48.389Z,13.27
2018-04-04T04:01:14.632Z,6.90
2018-04-04T04:03:40.813Z,7.10
2018-04-04T04:06:06.933Z,9.90
2018-04-04T04:08:33.129Z,8.60
2018-04-04T04:10:59.332Z,9.60
2018-04-04T04:13:25.489Z,12.80
2018-04-04T04:15:51.600Z,6.67
2018-04-04T04:18:17.748Z,10.03
2018-04-04T04:20:43.874Z,15.00
2018-04-04T04:23:09.973Z,8.07
2018-04-04T04:25:36.161Z,12.07
2018-04-04T04:28:03.104Z,5.50
2018-04-04T04:30:30.001Z,11.93
2018-04-04T04:32:56.151Z,8.67
2018-04-04T04:35:22.364Z,7.80
2018-04-04T04:37:48.532Z,10.77
2018-04-04T04:40:14.676Z,9.67
2018-04-04T04:42:40.882Z,7.50
2018-04-04T04:45:06.981Z,8.30
2018-04-04T04:47:33.132Z,9.20
2018-04-04T04:49:59.306Z,12.77
2018-04-04T04:52:25.440Z,11.90
2018-04-04T04:54:51.604Z,5.93
2018-04-04T04:57:17.728Z,6.87
2018-04-04T04:59:43.878Z,9.10
2018-04-04T05:02:10.785Z,18.93
2018-04-04T05:04:37.020Z,7.63
2018-04-04T05:07:03.172Z,6.80
2018-04-04T05:09:29.322Z,9.00
2018-04-04T05:11:55.491Z,6.13
2018-04-04T05:14:21.635Z,11.63
2018-04-04T05:16:48.588Z,8.50
2018-04-04T05:19:14.738Z,11.40
2018-04-04T05:21:41.610Z,9.90
2018-04-04T05:24:07.775Z,12.80
2018-04-04T05:26:33.953Z,13.10
2018-04-04T05:29:00.187Z,13.37
2018-04-04T05:31:27.085Z,7.23
2018-04-04T05:33:53.250Z,9.53
2018-04-04T05:36:19.503Z,6.23
2018-04-04T05:38:45.684Z,8.00
2018-04-04T05:41:12.570Z,18.40
2018-04-04T05:43:38.740Z,8.93
2018-04-04T05:46:05.650Z,11.30
2018-04-04T05:48:31.792Z,8.07
2018-04-04T05:50:57.980Z,9.73
2018-04-04T05:53:24.159Z,9.20
2018-04-04T05:55:50.376Z,4.37
2018-04-04T05:58:16.576Z,12.30
2018-04-04T06:00:42.778Z,10.20
2018-04-04T06:03:08.911Z,12.60
2018-04-04T06:05:35.104Z,6.20
2018-04-04T06:08:02.011Z,27.17
2018-04-04T06:10:28.129Z,9.20
2018-04-04T06:12:54.331Z,12.40
2018-04-04T06:15:20.441Z,9.77
2018-04-04T06:17:47.413Z,8.10
2018-04-04T06:20:13.632Z,6.43
2018-04-04T06:22:39.832Z,10.77
2018-04-04T06:25:06.784Z,8.33
2018-04-04T06:27:33.739Z,13.00
2018-04-04T06:29:59.971Z,10.57
2018-04-04T06:32:26.150Z,7.33
2018-04-04T06:34:52.361Z,16.47
2018-04-04T06:37:18.521Z,12.37
2018-04-04T06:39:44.685Z,22.73
2018-04-04T06:42:10.816Z,7.10
2018-04-04T06:44:37.008Z,10.03
2018-04-04T06:47:03.882Z,7.13
2018-04-04T06:49:30.041Z,8.07
2018-04-04T06:51:56.161Z,12.43
2018-04-04T06:54:22.293Z,11.53
2018-04-04T06:56:48.492Z,11.23
2018-04-04T06:59:14.625Z,8.37
2018-04-04T07:01:40.778Z,9.23
2018-04-04T07:04:06.971Z,16.67
2018-04-04T07:06:33.176Z,7.87
2018-04-04T07:09:00.050Z,10.80
2018-04-04T07:11:26.234Z,10.97
2018-04-04T07:13:52.383Z,9.33
2018-04-04T07:16:19.308Z,11.00
2018-04-04T07:18:45.517Z,8.90
2018-04-04T07:21:11.707Z,4.80
2018-04-04T07:23:37.898Z,12.00
2018-04-04T07:26:04.826Z,9.77
2018-04-04T07:28:31.845Z,11.87
2018-04-04T07:30:57.962Z,13.60
2018-04-04T07:33:24.128Z,8.53
2018-04-04T07:35:50.329Z,13.33
2018-04-04T07:38:16.595Z,8.43
2018-04-04T07:40:43.550Z,12.37
2018-04-04T07:43:10.448Z,12.37
2018-04-04T07:45:36.644Z,12.33
2018-04-04T07:48:02.843Z,7.67
2018-04-04T07:50:29.791Z,9.17
2018-04-04T07:52:56.721Z,12.00
2018-04-04T07:55:22.973Z,14.70
2018-04-04T07:57:49.159Z,9.27
2018-04-04T08:00:15.338Z,13.87
2018-04-04T08:02:41.527Z,7.30
2018-04-04T08:05:07.700Z,9.77
2018-04-04T08:07:33.872Z,12.93
2018-04-04T08:10:00.044Z,6.73
2018-04-04T08:12:26.168Z,15.03
2018-04-04T08:14:52.491Z,6.70
2018-04-04T08:17:19.428Z,11.43
2018-04-04T08:19:46.326Z,13.60
2018-04-04T08:22:12.564Z,11.27
2018-04-04T08:24:38.743Z,9.83
2018-04-04T08:27:04.925Z,8.50
2018-04-04T08:29:31.140Z,13.20
2018-04-04T08:31:57.304Z,11.63
2018-04-04T08:34:23.529Z,11.60
2018-04-04T08:36:49.654Z,14.43
2018-04-04T08:39:15.827Z,8.53
2018-04-04T08:41:42.015Z,10.83
2018-04-04T08:44:08.956Z,11.27
2018-04-04T08:46:35.886Z,10.53
2018-04-04T08:49:02.118Z,11.43
2018-04-04T08:51:28.248Z,13.80
2018-04-04T08:53:54.501Z,12.67
2018-04-04T08:56:20.783Z,14.50
2018-04-04T08:58:47.327Z,14.07
2018-04-04T09:01:13.591Z,10.73
2018-04-04T09:03:40.554Z,9.87
2018-04-04T09:06:06.713Z,11.23
2018-04-04T09:08:32.850Z,16.57
2018-04-04T09:10:59.033Z,17.17
2018-04-04T09:13:25.224Z,9.83
2018-04-04T09:15:52.126Z,13.80
2018-04-04T09:18:18.250Z,15.80
2018-04-04T09:20:44.463Z,16.73
2018-04-04T09:23:10.613Z,12.80
2018-04-04T09:25:36.832Z,15.63
2018-04-04T09:28:02.997Z,13.47
2018-04-04T09:30:29.195Z,16.43
2018-04-04T09:32:55.345Z,18.67
2018-04-04T09:35:21.651Z,23.63
2018-04-04T09:37:47.792Z,27.23
2018-04-04T09:40:13.910Z,22.23
2018-04-04T09:42:40.084Z,19.27
2018-04-04T09:45:07.009Z,14.30
2018-04-04T09:47:33.150Z,11.90
2018-04-04T09:50:00.032Z,15.13
2018-04-04T09:52:26.171Z,10.37
2018-04-04T09:54:52.302Z,15.23
2018-04-04T09:57:18.519Z,20.93
2018-04-04T09:59:44.687Z,9.53
2018-04-04T10:02:16.855Z,14.10
2018-04-04T10:04:43.024Z,12.77
2018-04-04T10:07:09.139Z,17.10
2018-04-04T10:09:35.331Z,9.50
2018-04-04T10:12:01.469Z,17.93
2018-04-04T10:14:27.655Z,15.53
2018-04-04T10:16:53.831Z,15.87
2018-04-04T10:19:20.751Z,15.07
2018-04-04T10:21:46.966Z,17.90
2018-04-04T10:24:13.144Z,12.63
2018-04-04T10:26:39.360Z,12.00
2018-04-04T10:29:06.268Z,18.00
2018-04-04T10:31:32.469Z,16.67
2018-04-04T10:33:58.651Z,16.57
2018-04-04T10:36:25.655Z,15.80
2018-04-04T10:38:51.845Z,14.20
2018-04-04T10:41:18.068Z,11.70
2018-04-04T10:43:44.957Z,14.37
2018-04-04T10:46:11.082Z,11.70
2018-04-04T10:48:37.238Z,17.70
2018-04-04T10:51:03.407Z,14.47
2018-04-04T10:53:29.608Z,13.30
2018-04-04T10:55:56.518Z,8.03
2018-04-04T10:58:22.712Z,10.23
2018-04-04T11:00:48.863Z,12.37
2018-04-04T11:03:15.063Z,17.30
2018-04-04T11:05:41.262Z,15.20
2018-04-04T11:08:08.272Z,24.87
2018-04-04T11:10:34.462Z,10.47
2018-04-04T11:13:00.665Z,8.10
2018-04-04T11:15:27.567Z,6.77
2018-04-04T11:17:53.777Z,13.80
2018-04-04T11:20:19.957Z,18.03
2018-04-04T11:22:46.206Z,13.37
2018-04-04T11:25:12.331Z,8.70
2018-04-04T11:27:39.227Z,5.70
2018-04-04T11:30:05.352Z,10.33
2018-04-04T11:32:31.565Z,4.97
2018-04-04T11:34:57.798Z,7.40
2018-04-04T11:37:24.807Z,11.17
2018-04-04T11:39:51.704Z,10.63
2018-04-04T11:42:17.880Z,5.37
2018-04-04T11:44:44.793Z,8.77
2018-04-04T11:47:11.009Z,9.00
2018-04-04T11:49:37.241Z,4.97
2018-04-04T11:52:03.385Z,17.97
2018-04-04T11:54:30.256Z,16.07
2018-04-04T11:56:56.442Z,7.33
2018-04-04T11:59:22.627Z,6.37
2018-04-04T12:01:48.825Z,5.40
2018-04-04T12:04:15.739Z,5.30
2018-04-04T12:06:41.935Z,7.37
2018-04-04T12:09:08.111Z,7.63
2018-04-04T12:11:35.074Z,4.40
2018-04-04T12:14:01.235Z,4.20
2018-04-04T12:16:27.399Z,5.10
2018-04-04T12:18:53.592Z,12.60
2018-04-04T12:21:19.760Z,6.87
2018-04-04T12:23:45.952Z,5.30
2018-04-04T12:26:12.093Z,5.93
2018-04-04T12:28:38.240Z,3.10
2018-04-04T12:31:04.383Z,9.90
2018-04-04T12:33:31.274Z,8.23
2018-04-04T12:35:57.430Z,7.90
2018-04-04T12:38:24.384Z,3.80
2018-04-04T12:40:51.246Z,4.73
2018-04-04T12:43:18.164Z,4.37
2018-04-04T12:45:44.365Z,5.30
2018-04-04T12:48:10.532Z,2.97
2018-04-04T12:50:37.492Z,5.90
2018-04-04T12:53:03.622Z,4.47
2018-04-04T12:55:30.594Z,9.67
2018-04-04T12:57:57.508Z,10.60
2018-04-04T13:00:23.695Z,3.40
2018-04-04T13:02:49.886Z,3.67
2018-04-04T13:05:16.105Z,3.70
2018-04-04T13:07:42.263Z,2.40
2018-04-04T13:10:08.428Z,6.33
2018-04-04T13:12:42.675Z,5.40
2018-04-04T13:15:08.937Z,4.53
2018-04-04T13:17:35.140Z,7.33
2018-04-04T13:20:04.877Z,10.53
2018-04-04T13:22:40.013Z,5.13
2018-04-04T13:25:06.177Z,2.77
2018-04-04T13:27:32.360Z,2.10
2018-04-04T13:29:58.553Z,7.13
2018-04-04T13:32:24.773Z,6.63
2018-04-04T13:34:50.988Z,3.43
2018-04-04T13:37:17.904Z,1.73
2018-04-04T13:39:44.060Z,7.90
2018-04-04T13:42:10.174Z,4.17
2018-04-04T13:44:36.317Z,3.27
2018-04-04T13:47:03.249Z,4.73
2018-04-04T13:49:29.462Z,5.60
2018-04-04T13:51:55.580Z,5.53
2018-04-04T13:54:21.791Z,7.90
2018-04-04T13:56:47.937Z,2.93
2018-04-04T13:59:14.106Z,5.27
2018-04-04T14:01:41.011Z,4.17
2018-04-04T14:04:07.231Z,3.60
2018-04-04T14:06:33.422Z,2.10
2018-04-04T14:08:59.590Z,2.60
2018-04-04T14:11:25.724Z,8.30
2018-04-04T14:13:51.946Z,2.00
2018-04-04T14:16:18.132Z,3.40
2018-04-04T14:18:44.285Z,3.97
2018-04-04T14:21:10.530Z,3.17
2018-04-04T14:23:36.694Z,15.47
2018-04-04T14:26:03.634Z,3.83
2018-04-04T14:28:30.616Z,4.40
2018-04-04T14:30:56.999Z,7.63
2018-04-04T14:33:23.875Z,3.93
2018-04-04T14:35:50.132Z,3.53
2018-04-04T14:38:16.315Z,2.87
2018-04-04T14:40:43.331Z,4.50
2018-04-04T14:43:09.576Z,3.87
2018-04-04T14:45:36.460Z,2.27
2018-04-04T14:48:02.595Z,3.50
2018-04-04T14:50:28.721Z,3.27
2018-04-04T14:52:54.904Z,6.20
2018-04-04T14:55:21.764Z,3.50
2018-04-04T14:57:48.712Z,5.90
2018-04-04T15:00:14.869Z,2.43
2018-04-04T15:02:41.118Z,2.07
2018-04-04T15:05:07.315Z,3.83
2018-04-04T15:07:33.463Z,4.10
2018-04-04T15:09:59.598Z,17.90
2018-04-04T15:12:25.762Z,5.50
2018-04-04T15:14:52.693Z,10.07
2018-04-04T15:17:19.586Z,5.37
2018-04-04T15:19:45.848Z,3.07
2018-04-04T15:22:11.966Z,9.60
2018-04-04T15:24:38.124Z,4.70
2018-04-04T15:27:04.270Z,4.77
2018-04-04T15:29:31.181Z,9.30
2018-04-04T15:31:57.401Z,34.80
2018-04-04T15:34:23.573Z,15.83
2018-04-04T15:36:49.747Z,45.17
2018-04-04T15:39:15.964Z,15.13
2018-04-04T15:41:42.172Z,9.43
2018-04-04T15:44:08.339Z,6.83
2018-04-04T15:46:34.481Z,10.33
2018-04-04T15:49:00.670Z,6.80
2018-04-04T15:51:26.847Z,11.33
2018-04-04T15:53:53.727Z,8.90
2018-04-04T15:56:19.862Z,8.13
2018-04-04T15:58:45.991Z,10.23
2018-04-04T16:01:12.174Z,5.13
2018-04-04T16:03:39.123Z,9.80
2018-04-04T16:06:06.097Z,3.70
2018-04-04T16:08:32.351Z,2.47
2018-04-04T16:10:58.481Z,7.90
2018-04-04T16:13:24.665Z,3.30
2018-04-04T16:15:50.840Z,1.30
2018-04-04T16:18:17.049Z,2.63
2018-04-04T16:20:43.221Z,2.30
2018-04-04T16:23:09.460Z,2.20
2018-04-04T16:25:36.329Z,4.63
2018-04-04T16:28:02.522Z,1.43
2018-04-04T16:30:29.390Z,1.27
2018-04-04T16:32:55.561Z,1.30
2018-04-04T16:35:21.673Z,4.97
2018-04-04T16:37:47.789Z,2.37
2018-04-04T16:40:13.986Z,2.33
2018-04-04T16:42:41.066Z,3.10
2018-04-04T16:45:07.275Z,2.10
2018-04-04T16:47:33.473Z,4.20
2018-04-04T16:50:00.477Z,3.57
2018-04-04T16:52:26.633Z,6.63
2018-04-04T16:54:52.768Z,1.27
2018-04-04T16:57:18.950Z,2.00
2018-04-04T16:59:45.126Z,1.53
2018-04-04T17:02:12.017Z,1.43
2018-04-04T17:04:38.236Z,2.97
2018-04-04T17:07:04.405Z,0.83
2018-04-04T17:09:30.588Z,1.17
2018-04-04T17:11:56.803Z,2.33
2018-04-04T17:14:22.975Z,2.83
2018-04-04T17:16:49.104Z,1.43
2018-04-04T17:19:15.223Z,1.80
2018-04-04T17:21:41.419Z,4.77
2018-04-04T17:24:07.549Z,2.10
2018-04-04T17:26:33.740Z,3.20
2018-04-04T17:29:00.662Z,1.40
2018-04-04T17:31:26.842Z,2.13
2018-04-04T17:33:53.053Z,2.53
2018-04-04T17:36:19.149Z,0.80
2018-04-04T17:38:45.330Z,5.50
2018-04-04T17:41:12.064Z,1.60
2018-04-04T17:43:39.160Z,3.27
2018-04-04T17:46:05.301Z,3.27
2018-04-04T17:48:31.502Z,1.13
2018-04-04T17:50:57.669Z,4.70
2018-04-04T17:53:24.533Z,1.87
2018-04-04T17:55:50.727Z,2.50
2018-04-04T17:58:16.960Z,3.50
2018-04-04T18:00:43.874Z,2.10
2018-04-04T18:03:10.065Z,1.43
2018-04-04T18:05:36.288Z,3.10
2018-04-04T18:08:02.574Z,2.17
2018-04-04T18:10:28.784Z,1.80
2018-04-04T18:12:55.053Z,1.33
2018-04-04T18:15:27.117Z,1.10
2018-04-04T18:17:54.062Z,2.40
2018-04-04T18:20:20.237Z,1.93
2018-04-04T18:22:46.375Z,3.10
2018-04-04T18:25:12.541Z,2.47
2018-04-04T18:27:39.429Z,1.00
2018-04-04T18:30:05.593Z,0.70
2018-04-04T18:32:31.782Z,2.47
2018-04-04T18:34:57.930Z,1.33
2018-04-04T18:37:24.109Z,4.23
2018-04-04T18:39:51.046Z,0.80
2018-04-04T18:42:17.992Z,1.43
2018-04-04T18:44:44.892Z,0.80
2018-04-04T18:47:11.096Z,2.37
2018-04-04T18:49:37.286Z,2.53
2018-04-04T18:52:03.415Z,1.53
2018-04-04T18:54:30.384Z,4.23
2018-04-04T18:56:56.780Z,1.10
2018-04-04T18:59:23.737Z,5.80
2018-04-04T19:01:50.640Z,1.70
2018-04-04T19:04:16.859Z,2.70
2018-04-04T19:06:43.050Z,1.23
2018-04-04T19:09:09.949Z,2.10
2018-04-04T19:11:36.100Z,2.70
2018-04-04T19:14:03.004Z,2.10
2018-04-04T19:16:29.200Z,1.63
2018-04-04T19:18:55.422Z,2.53
2018-04-04T19:21:21.583Z,2.00
2018-04-04T19:23:47.891Z,3.33
2018-04-04T19:26:14.109Z,2.17
2018-04-04T19:28:40.344Z,2.10
2018-04-04T19:31:06.629Z,0.93
2018-04-04T19:33:32.849Z,1.60
2018-04-04T19:35:58.998Z,1.53
2018-04-04T19:38:25.890Z,2.60
2018-04-04T19:40:52.077Z,7.00
2018-04-04T19:43:19.049Z,1.20
2018-04-04T19:45:45.243Z,5.80
2018-04-04T19:48:12.229Z,4.37
2018-04-04T19:50:38.460Z,1.60
2018-04-04T19:53:04.707Z,5.40
2018-04-04T19:55:34.430Z,2.47
2018-04-04T19:58:01.034Z,3.10
2018-04-04T20:00:27.271Z,2.50
2018-04-04T20:02:53.445Z,3.90
2018-04-04T20:05:19.934Z,2.93
2018-04-04T20:07:46.608Z,1.87
2018-04-04T20:10:12.899Z,2.50
2018-04-04T20:12:39.170Z,1.67
2018-04-04T20:15:05.342Z,1.60
2018-04-04T20:17:31.660Z,1.10
2018-04-04T20:19:57.905Z,0.90
2018-04-04T20:22:24.751Z,2.70
2018-04-04T20:24:51.058Z,3.80
2018-04-04T20:27:17.934Z,4.20
2018-04-04T20:29:44.157Z,1.23
2018-04-04T20:32:10.515Z,2.10
2018-04-04T20:34:36.673Z,3.33
2018-04-04T20:37:03.671Z,1.40
2018-04-04T20:39:29.835Z,2.20
2018-04-04T20:41:55.985Z,3.10
2018-04-04T20:44:22.929Z,1.93
2018-04-04T20:46:49.803Z,1.77
2018-04-04T20:49:15.980Z,1.30
2018-04-04T20:51:42.149Z,3.47
2018-04-04T20:54:08.376Z,1.90
2018-04-04T20:56:34.602Z,1.93
2018-04-04T20:59:00.710Z,4.33
2018-04-04T21:01:27.694Z,1.27
2018-04-04T21:03:54.563Z,1.50
2018-04-04T21:06:20.801Z,8.13
2018-04-04T21:08:47.453Z,2.50
2018-04-04T21:11:14.437Z,0.80
2018-04-04T21:13:40.647Z,2.00
2018-04-04T21:16:07.619Z,3.13
2018-04-04T21:18:33.756Z,0.80
2018-04-04T21:20:59.948Z,2.87
2018-04-04T21:23:26.152Z,1.70
2018-04-04T21:25:53.062Z,4.93
2018-04-04T21:28:19.211Z,1.30
2018-04-04T21:30:45.400Z,1.17
2018-04-04T21:33:11.603Z,2.20
2018-04-04T21:35:37.811Z,3.73
2018-04-04T21:38:04.725Z,0.70
2018-04-04T21:40:30.946Z,1.20
2018-04-04T21:43:04.074Z,5.43
2018-04-04T21:45:30.958Z,1.23
2018-04-04T21:47:57.140Z,4.67
2018-04-04T21:50:24.036Z,1.30
2018-04-04T21:52:50.255Z,2.70
2018-04-04T21:55:16.417Z,2.73
2018-04-04T21:57:42.621Z,3.70
2018-04-04T22:00:08.783Z,9.90
2018-04-04T22:02:34.917Z,1.00
2018-04-04T22:05:01.110Z,2.63
2018-04-04T22:07:27.299Z,1.33
2018-04-04T22:09:53.457Z,3.63
2018-04-04T22:12:19.632Z,1.07
2018-04-04T22:14:46.572Z,1.23
2018-04-04T22:17:13.442Z,1.60
2018-04-04T22:19:39.681Z,2.50
2018-04-04T22:22:05.870Z,5.33
2018-04-04T22:24:32.847Z,8.23
2018-04-04T22:26:59.030Z,1.77
2018-04-04T22:29:25.224Z,1.30
2018-04-04T22:31:51.342Z,9.30
2018-04-04T22:34:17.509Z,3.40
2018-04-04T22:36:43.620Z,1.83
2018-04-04T22:39:09.763Z,1.00
2018-04-04T22:41:35.953Z,1.30
2018-04-04T22:44:02.107Z,4.97
2018-04-04T22:46:28.253Z,1.00
2018-04-04T22:48:55.141Z,3.70
2018-04-04T22:51:21.274Z,4.17
2018-04-04T22:53:47.405Z,2.00
2018-04-04T22:56:13.568Z,1.53
2018-04-04T22:58:39.755Z,6.00
2018-04-04T23:01:06.023Z,1.90
2018-04-04T23:03:32.232Z,1.43
2018-04-04T23:05:58.376Z,3.27
2018-04-04T23:08:24.547Z,1.00
2018-04-04T23:10:50.682Z,2.37
2018-04-04T23:13:16.872Z,1.83
2018-04-04T23:15:43.771Z,1.87
2018-04-04T23:18:09.987Z,7.20
2018-04-04T23:20:36.108Z,3.17
2018-04-04T23:23:02.293Z,3.03
2018-04-04T23:25:29.129Z,2.03
2018-04-04T23:27:55.320Z,2.77
2018-04-04T23:30:21.461Z,2.93
2018-04-04T23:32:48.356Z,1.23
2018-04-04T23:35:14.498Z,1.60
2018-04-04T23:40:33.465Z,2.17
2018-04-04T23:42:59.678Z,2.10
2018-04-04T23:45:25.807Z,2.50
2018-04-04T23:47:51.894Z,1.57
2018-04-04T23:50:18.121Z,2.00
2018-04-04T23:52:45.410Z,2.70
2018-04-04T23:55:11.558Z,1.30
2018-04-04T23:57:37.673Z,0.80
